EDT,Max TemperatureF,Mean TemperatureF,Min TemperatureF,Max Dew PointF,MeanDew PointF,Min DewpointF,Max Humidity, Mean Humidity, Min Humidity, Max Sea Level PressureIn, Mean Sea Level PressureIn, Min Sea Level PressureIn, Max VisibilityMiles, Mean VisibilityMiles, Min VisibilityMiles, Max Wind SpeedMPH, Mean Wind SpeedMPH, Max Gust SpeedMPH,PrecipitationIn, CloudCover, Events, WindDirDegrees
2013-8-1,73,66,59,66,62,54,100,87,50,29.90,29.86,29.82,15,9,1,18,11,25,0.00,7,Rain-Thunderstorm,267
2013-8-2,77,66,55,63,59,55,100,83,47,29.92,29.89,29.84,15,12,1,18,7,29,0.00,5,Rain,253
2013-8-3,71,63,55,61,57,52,100,82,45,30.03,29.96,29.88,15,11,0,14,5,21,0.00,5,Fog-Rain,293
2013-8-4,68,62,53,57,53,48,94,75,52,30.14,30.09,30.03,15,15,15,14,6,23,0.00,3,,316
2013-8-5,69,58,46,55,51,46,100,76,38,30.16,30.10,30.03,15,15,15,12,4,,0.00,3,Fog,161
2013-8-6,73,65,57,63,58,54,88,75,58,30.03,30.00,29.96,15,15,12,16,6,20,0.00,7,Rain,149
2013-8-7,78,71,64,70,66,61,94,85,70,29.95,29.90,29.85,15,11,2,20,9,26,0.00,6,Rain-Thunderstorm,187
2013-8-8,75,68,62,66,64,61,100,84,69,30.01,29.96,29.91,15,13,1,14,6,,0.00,6,Fog-Rain-Thunderstorm,336
2013-8-9,75,67,59,61,56,52,88,68,38,29.98,29.96,29.93,15,15,12,9,7,,0.00,6,,324
2013-8-10,69,62,51,59,53,44,94,69,38,30.15,30.10,29.98,15,15,15,14,8,21,0.00,1,,323
2013-8-11,71,60,48,61,54,48,100,77,53,30.16,30.12,30.06,15,15,15,7,2,,0.00,4,Rain,296
2013-8-12,71,63,55,64,60,54,100,85,69,30.08,29.99,29.87,15,14,10,17,4,23,0.00,6,Rain,207
2013-8-13,66,60,53,64,54,45,100,81,56,29.99,29.90,29.79,15,13,0,17,9,31,0.00,6,Fog-Rain,314
2013-8-14,68,60,51,54,50,47,94,72,45,30.15,30.08,29.99,15,15,12,15,8,25,0.00,3,Rain,314
2013-8-15,69,58,48,55,49,46,100,70,43,30.17,30.14,30.12,15,15,15,15,4,23,0.00,2,,261
2013-8-16,77,62,48,59,53,48,100,73,33,30.23,30.18,30.13,15,14,10,9,2,,0.00,2,Fog,122
2013-8-17,77,64,51,59,54,50,100,72,32,30.30,30.26,30.23,15,14,10,9,3,,0.00,2,Fog,103
2013-8-18,78,64,51,61,56,50,100,74,39,30.26,30.21,30.14,15,14,8,8,4,,0.00,2,Fog,78
2013-8-19,78,64,51,63,57,50,100,76,37,30.15,30.11,30.06,15,11,1,14,4,,0.00,2,,246
2013-8-20,80,68,57,68,61,55,100,81,46,30.16,30.12,30.08,15,8,0,14,4,17,0.00,1,Fog,236
2013-8-21,84,72,60,68,63,59,100,79,45,30.17,30.12,30.04,15,9,0,20,6,22,0.00,1,Fog,171
2013-8-22,80,73,66,70,66,63,94,80,51,30.05,30.01,29.98,15,11,1,15,8,21,0.00,5,Rain,265
2013-8-23,77,66,55,63,56,52,100,73,34,30.21,30.12,30.05,15,14,7,13,5,,0.00,2,Fog,16
2013-8-24,77,65,53,58,56,52,100,75,43,30.37,30.31,30.22,15,15,15,8,5,,0.00,2,,110
2013-8-25,82,66,50,64,57,50,100,78,37,30.34,30.28,30.16,15,12,2,17,5,23,0.00,4,Fog,172
2013-8-26,80,74,68,70,66,61,100,75,60,30.16,30.05,29.96,15,13,8,15,10,20,0.00,6,Rain,256
2013-8-27,86,75,64,73,70,63,100,87,58,29.98,29.93,29.89,12,7,2,12,3,18,0.00,5,Fog-Rain,282
2013-8-28,80,74,68,72,70,68,100,91,70,30.01,29.89,29.83,10,4,0,12,6,,0.00,6,Fog-Rain,66
2013-8-29,84,74,64,70,67,63,100,81,52,30.09,30.04,30.01,15,12,0,8,3,,0.00,2,Fog,339
2013-8-30,84,73,62,72,67,61,100,84,58,30.02,29.90,29.76,15,8,1,20,5,26,0.00,6,Fog-Rain-Thunderstorm,206
2013-8-31,77,72,64,70,67,63,100,87,68,29.85,29.80,29.76,15,9,2,10,6,,0.00,6,,322